createdAt,value
2016-07-05T00:00:06.166Z,964.12
2016-07-05T00:01:06.180Z,964.11
2016-07-05T00:02:06.189Z,964.15
2016-07-05T00:03:06.200Z,964.09
2016-07-05T00:04:06.212Z,964.14
2016-07-05T00:05:06.214Z,964.12
2016-07-05T00:06:06.232Z,964.11
2016-07-05T00:07:06.233Z,964.12
2016-07-05T00:08:06.252Z,964.09
2016-07-05T00:09:06.259Z,964.16
2016-07-05T00:10:06.260Z,964.16
2016-07-05T00:11:06.269Z,964.14
2016-07-05T00:12:06.280Z,964.14
2016-07-05T00:13:06.285Z,964.13
2016-07-05T00:14:06.302Z,964.16
2016-07-05T00:15:06.308Z,964.14
2016-07-05T00:16:06.323Z,964.1
2016-07-05T00:17:06.330Z,964.08
2016-07-05T00:18:06.340Z,964.08
2016-07-05T00:19:06.345Z,964.12
2016-07-05T00:20:06.353Z,964.13
2016-07-05T00:21:06.366Z,964.13
2016-07-05T00:22:06.368Z,964.13
2016-07-05T00:23:06.384Z,964.1
2016-07-05T00:24:06.394Z,964.08
2016-07-05T00:25:06.408Z,964.08
2016-07-05T00:26:06.412Z,964.07
2016-07-05T00:27:06.418Z,964.06
2016-07-05T00:28:06.417Z,964.04
2016-07-05T00:29:06.483Z,964.02
2016-07-05T00:30:06.441Z,964.08
2016-07-05T00:31:06.445Z,964.04
2016-07-05T00:32:06.458Z,964.08
2016-07-05T00:33:06.462Z,964.11
2016-07-05T00:34:06.484Z,964.08
2016-07-05T00:35:06.500Z,964.09
2016-07-05T00:36:06.500Z,964.07
2016-07-05T00:37:06.508Z,964.03
2016-07-05T00:38:06.512Z,964.05
2016-07-05T00:39:06.526Z,964.01
2016-07-05T00:40:06.527Z,964.02
2016-07-05T00:41:06.544Z,964
2016-07-05T00:42:06.555Z,963.94
2016-07-05T00:43:06.557Z,963.96
2016-07-05T00:44:06.564Z,963.97
2016-07-05T00:45:06.582Z,963.92
2016-07-05T00:46:06.592Z,963.96
2016-07-05T00:47:06.599Z,963.93
2016-07-05T00:48:06.599Z,963.92
2016-07-05T00:49:06.609Z,963.87
2016-07-05T00:50:06.614Z,963.88
2016-07-05T00:51:06.634Z,963.84
2016-07-05T00:52:06.635Z,963.83
2016-07-05T00:53:06.658Z,963.83
2016-07-05T00:54:06.663Z,963.82
2016-07-05T00:55:06.670Z,963.79
2016-07-05T00:56:06.679Z,963.79
2016-07-05T00:57:06.687Z,963.76
2016-07-05T00:58:06.694Z,963.77
2016-07-05T00:59:06.698Z,963.76
2016-07-05T01:00:06.712Z,963.75
2016-07-05T01:01:06.715Z,963.7
2016-07-05T01:02:06.733Z,963.65
2016-07-05T01:03:06.733Z,963.69
2016-07-05T01:04:06.741Z,963.66
2016-07-05T01:05:06.753Z,963.66
2016-07-05T01:06:06.767Z,963.67
2016-07-05T01:07:06.772Z,963.67
2016-07-05T01:08:06.780Z,963.63
2016-07-05T01:09:06.794Z,963.65
2016-07-05T01:10:06.795Z,963.6
2016-07-05T01:11:06.806Z,963.63
2016-07-05T01:12:06.820Z,963.62
2016-07-05T01:13:06.824Z,963.61
2016-07-05T01:14:06.838Z,963.62
2016-07-05T01:15:06.838Z,963.6
2016-07-05T01:16:06.857Z,963.61
2016-07-05T01:17:06.858Z,963.59
2016-07-05T01:18:06.866Z,963.59
2016-07-05T01:19:06.886Z,963.57
2016-07-05T01:20:06.890Z,963.55
2016-07-05T01:21:06.901Z,963.54
2016-07-05T01:22:06.903Z,963.53
2016-07-05T01:23:06.911Z,963.52
2016-07-05T01:24:06.927Z,963.52
2016-07-05T01:25:06.932Z,963.52
2016-07-05T01:26:06.942Z,963.5
2016-07-05T01:27:06.953Z,963.52
2016-07-05T01:28:06.954Z,963.51
2016-07-05T01:29:06.971Z,963.47
2016-07-05T01:30:06.974Z,963.47
2016-07-05T01:31:06.989Z,963.43
2016-07-05T01:32:06.987Z,963.46
2016-07-05T01:33:06.997Z,963.42
2016-07-05T01:34:07.014Z,963.4
2016-07-05T01:35:07.013Z,963.4
2016-07-05T01:36:07.022Z,963.39
2016-07-05T01:37:07.042Z,963.35
2016-07-05T01:38:07.049Z,963.32
2016-07-05T01:39:07.056Z,963.3
2016-07-05T01:40:07.058Z,963.29
2016-07-05T01:41:07.075Z,963.28
2016-07-05T01:42:07.088Z,963.25
2016-07-05T01:43:07.106Z,963.28
2016-07-05T01:44:07.101Z,963.22
2016-07-05T01:45:07.103Z,963.21
2016-07-05T01:46:07.119Z,963.2
2016-07-05T01:47:07.123Z,963.21
2016-07-05T01:48:07.136Z,963.21
2016-07-05T01:49:07.140Z,963.2
2016-07-05T01:50:07.148Z,963.23
2016-07-05T01:51:07.155Z,963.16
2016-07-05T01:52:07.167Z,963.16
2016-07-05T01:53:07.181Z,963.17
2016-07-05T01:54:07.180Z,963.18
2016-07-05T01:55:07.213Z,963.17
2016-07-05T01:56:07.208Z,963.16
2016-07-05T01:57:07.208Z,963.17
2016-07-05T01:58:07.225Z,963.16
2016-07-05T01:59:07.236Z,963.16
2016-07-05T02:00:07.247Z,963.15
2016-07-05T02:01:07.303Z,963.16
2016-07-05T02:02:07.253Z,963.14
2016-07-05T02:03:07.329Z,963.15
2016-07-05T02:04:07.268Z,963.14
2016-07-05T02:05:07.347Z,963.1
2016-07-05T02:06:07.357Z,963.09
2016-07-05T02:07:07.359Z,963.08
2016-07-05T02:08:07.302Z,963.07
2016-07-05T02:09:07.319Z,963.08
2016-07-05T02:10:07.323Z,963.03
2016-07-05T02:11:07.346Z,963.05
2016-07-05T02:12:07.348Z,963.04
2016-07-05T02:13:07.345Z,963.03
2016-07-05T02:14:07.365Z,962.99
2016-07-05T02:15:07.372Z,963.01
2016-07-05T02:16:07.372Z,963
2016-07-05T02:17:07.390Z,963.01
2016-07-05T02:18:07.403Z,962.98
2016-07-05T02:19:07.404Z,962.94
2016-07-05T02:20:07.412Z,962.97
2016-07-05T02:21:07.420Z,962.97
2016-07-05T02:22:07.431Z,962.91
2016-07-05T02:23:07.434Z,962.92
2016-07-05T02:24:07.452Z,962.94
2016-07-05T02:25:07.455Z,962.9
2016-07-05T02:26:07.468Z,962.88
2016-07-05T02:27:07.468Z,962.94
2016-07-05T02:28:07.489Z,962.92
2016-07-05T02:29:07.495Z,962.91
2016-07-05T02:30:07.499Z,962.89
2016-07-05T02:31:07.504Z,962.9
2016-07-05T02:32:07.522Z,962.88
2016-07-05T02:33:07.524Z,962.9
2016-07-05T02:34:07.532Z,962.86
2016-07-05T02:35:07.541Z,962.88
2016-07-05T02:36:07.558Z,962.89
2016-07-05T02:37:07.568Z,962.9
2016-07-05T02:38:07.566Z,962.88
2016-07-05T02:39:07.580Z,962.9
2016-07-05T02:40:07.595Z,962.85
2016-07-05T02:41:07.601Z,962.88
2016-07-05T02:42:07.614Z,962.89
2016-07-05T02:43:07.624Z,962.84
2016-07-05T02:44:07.626Z,962.9
2016-07-05T02:45:07.638Z,962.89
2016-07-05T02:46:07.648Z,962.91
2016-07-05T02:47:07.654Z,962.89
2016-07-05T02:48:07.664Z,962.85
2016-07-05T02:49:07.661Z,962.92
2016-07-05T02:50:07.682Z,962.92
2016-07-05T02:51:07.692Z,962.93
2016-07-05T02:52:07.695Z,962.9
2016-07-05T02:53:07.711Z,962.9
2016-07-05T02:54:07.722Z,962.9
2016-07-05T02:55:07.720Z,962.85
2016-07-05T02:56:07.730Z,962.85
2016-07-05T02:57:07.740Z,962.86
2016-07-05T02:58:07.745Z,962.88
2016-07-05T02:59:07.752Z,962.83
2016-07-05T03:00:07.762Z,962.87
2016-07-05T03:01:07.774Z,962.86
2016-07-05T03:02:07.786Z,962.8
2016-07-05T03:03:07.787Z,962.83
2016-07-05T03:04:07.808Z,962.82
2016-07-05T03:05:07.817Z,962.79
2016-07-05T03:06:07.824Z,962.78
2016-07-05T03:07:07.828Z,962.73
2016-07-05T03:08:07.834Z,962.77
2016-07-05T03:09:07.843Z,962.73
2016-07-05T03:10:07.857Z,962.77
2016-07-05T03:11:07.857Z,962.78
2016-07-05T03:12:07.869Z,962.76
2016-07-05T03:13:07.876Z,962.77
2016-07-05T03:14:07.887Z,962.79
2016-07-05T03:15:07.900Z,962.79
2016-07-05T03:16:07.902Z,962.81
2016-07-05T03:17:07.918Z,962.82
2016-07-05T03:18:07.923Z,962.82
2016-07-05T03:19:07.928Z,962.78
2016-07-05T03:20:07.940Z,962.8
2016-07-05T03:21:07.947Z,962.8
2016-07-05T03:22:07.956Z,962.79
2016-07-05T03:23:07.970Z,962.83
2016-07-05T03:24:07.974Z,962.85
2016-07-05T03:25:07.989Z,962.84
2016-07-05T03:26:07.999Z,962.86
2016-07-05T03:27:08.007Z,962.83
2016-07-05T03:28:08.006Z,962.85
2016-07-05T03:29:08.024Z,962.85
2016-07-05T03:30:08.030Z,962.89
2016-07-05T03:31:08.044Z,962.86
2016-07-05T03:32:08.042Z,962.89
2016-07-05T03:33:08.061Z,962.95
2016-07-05T03:34:08.061Z,962.93
2016-07-05T03:35:08.072Z,962.93
2016-07-05T03:36:08.076Z,962.92
2016-07-05T03:37:08.090Z,962.94
2016-07-05T03:38:08.104Z,962.93
2016-07-05T03:39:08.106Z,962.93
2016-07-05T03:40:08.109Z,962.91
2016-07-05T03:41:08.127Z,962.9
2016-07-05T03:42:08.137Z,962.88
2016-07-05T03:43:08.145Z,962.83
2016-07-05T03:44:08.145Z,962.88
2016-07-05T03:45:08.155Z,962.85
2016-07-05T03:46:08.174Z,962.81
2016-07-05T03:47:08.196Z,962.8
2016-07-05T03:48:08.184Z,962.83
2016-07-05T03:49:08.193Z,962.81
2016-07-05T03:50:08.203Z,962.82
2016-07-05T03:51:08.219Z,962.82
2016-07-05T03:52:08.223Z,962.84
2016-07-05T03:53:08.233Z,962.87
2016-07-05T03:54:08.246Z,962.88
2016-07-05T03:55:08.251Z,962.85
2016-07-05T03:56:08.254Z,962.83
2016-07-05T03:57:08.270Z,962.82
2016-07-05T03:58:08.267Z,962.83
2016-07-05T03:59:08.277Z,962.83
2016-07-05T04:00:08.289Z,962.83
2016-07-05T04:01:08.303Z,962.85
2016-07-05T04:02:08.313Z,962.84
2016-07-05T04:03:08.321Z,962.78
2016-07-05T04:04:08.324Z,962.86
2016-07-05T04:05:08.329Z,962.84
2016-07-05T04:06:08.349Z,962.85
2016-07-05T04:07:08.358Z,962.85
2016-07-05T04:08:08.367Z,962.83
2016-07-05T04:09:08.376Z,962.84
2016-07-05T04:10:08.384Z,962.83
2016-07-05T04:11:08.384Z,962.86
2016-07-05T04:12:08.406Z,962.84
2016-07-05T04:13:08.402Z,962.87
2016-07-05T04:14:08.417Z,962.86
2016-07-05T04:15:08.420Z,962.85
2016-07-05T04:16:08.432Z,962.86
2016-07-05T04:17:08.435Z,962.81
2016-07-05T04:18:08.454Z,962.86
2016-07-05T04:19:08.465Z,962.85
2016-07-05T04:20:08.460Z,962.83
2016-07-05T04:21:08.480Z,962.84
2016-07-05T04:22:08.489Z,962.82
2016-07-05T04:23:08.493Z,962.85
2016-07-05T04:24:08.498Z,962.84
2016-07-05T04:25:08.517Z,962.79
2016-07-05T04:26:08.517Z,962.85
2016-07-05T04:27:08.527Z,962.84
2016-07-05T04:28:08.540Z,962.82
2016-07-05T04:29:08.543Z,962.86
2016-07-05T04:30:08.553Z,962.86
2016-07-05T04:31:08.568Z,962.84
2016-07-05T04:32:08.570Z,962.84
2016-07-05T04:33:08.576Z,962.85
2016-07-05T04:34:08.597Z,962.84
2016-07-05T04:35:08.598Z,962.83
2016-07-05T04:36:08.603Z,962.84
2016-07-05T04:37:08.611Z,962.8
2016-07-05T04:38:08.627Z,962.83
2016-07-05T04:39:08.640Z,962.85
2016-07-05T04:40:08.644Z,962.86
2016-07-05T04:41:08.653Z,962.88
2016-07-05T04:42:08.655Z,962.87
2016-07-05T04:43:08.672Z,962.84
2016-07-05T04:44:08.676Z,962.86
2016-07-05T04:45:08.694Z,962.82
2016-07-05T04:46:08.701Z,962.85
2016-07-05T04:47:08.708Z,962.83
2016-07-05T04:48:08.715Z,962.81
2016-07-05T04:49:08.716Z,962.83
2016-07-05T04:50:08.727Z,962.8
2016-07-05T04:51:08.731Z,962.8
2016-07-05T04:52:08.745Z,962.79
2016-07-05T04:53:08.746Z,962.77
2016-07-05T04:54:08.763Z,962.77
2016-07-05T04:55:08.772Z,962.71
2016-07-05T04:56:08.786Z,962.72
2016-07-05T04:57:08.781Z,962.68
2016-07-05T04:58:08.797Z,962.66
2016-07-05T04:59:08.810Z,962.68
2016-07-05T05:00:08.813Z,962.69
2016-07-05T05:01:08.822Z,962.69
2016-07-05T05:02:08.834Z,962.7
2016-07-05T05:03:08.852Z,962.7
2016-07-05T05:04:08.856Z,962.72
2016-07-05T05:05:08.862Z,962.71
2016-07-05T05:06:08.874Z,962.67
2016-07-05T05:07:08.876Z,962.63
2016-07-05T05:08:08.879Z,962.64
2016-07-05T05:09:08.901Z,962.63
2016-07-05T05:10:08.908Z,962.67
2016-07-05T05:11:08.913Z,962.64
2016-07-05T05:12:08.926Z,962.62
2016-07-05T05:13:08.927Z,962.63
2016-07-05T05:14:08.944Z,962.65
2016-07-05T05:15:08.959Z,962.67
2016-07-05T05:16:08.961Z,962.63
2016-07-05T05:17:08.973Z,962.63
2016-07-05T05:18:08.979Z,962.66
2016-07-05T05:19:08.988Z,962.64
2016-07-05T05:20:08.989Z,962.63
2016-07-05T05:21:08.997Z,962.66
2016-07-05T05:22:09.008Z,962.65
2016-07-05T05:23:09.022Z,962.66
2016-07-05T05:24:09.133Z,962.64
2016-07-05T05:25:09.036Z,962.61
2016-07-05T05:26:09.044Z,962.62
2016-07-05T05:27:09.058Z,962.62
2016-07-05T05:28:09.068Z,962.64
2016-07-05T05:29:09.075Z,962.65
2016-07-05T05:30:09.078Z,962.63
2016-07-05T05:31:09.093Z,962.69
2016-07-05T05:32:09.104Z,962.68
2016-07-05T05:33:09.103Z,962.69
2016-07-05T05:34:09.120Z,962.71
2016-07-05T05:35:09.118Z,962.71
2016-07-05T05:36:09.138Z,962.72
2016-07-05T05:37:09.140Z,962.75
2016-07-05T05:38:09.158Z,962.73
2016-07-05T05:39:09.165Z,962.73
2016-07-05T05:40:09.162Z,962.76
2016-07-05T05:41:09.173Z,962.74
2016-07-05T05:42:09.183Z,962.77
2016-07-05T05:43:09.211Z,962.79
2016-07-05T05:44:09.203Z,962.78
2016-07-05T05:45:09.216Z,962.79
2016-07-05T05:46:09.227Z,962.82
2016-07-05T05:47:09.229Z,962.78
2016-07-05T05:48:09.232Z,962.8
2016-07-05T05:49:09.244Z,962.83
2016-07-05T05:50:09.254Z,962.82
2016-07-05T05:51:09.271Z,962.8
2016-07-05T05:52:09.275Z,962.83
2016-07-05T05:53:09.280Z,962.81
2016-07-05T05:54:09.296Z,962.86
2016-07-05T05:55:09.306Z,962.88
2016-07-05T05:56:09.314Z,962.87
2016-07-05T05:57:09.324Z,962.9
2016-07-05T05:58:09.326Z,962.9
2016-07-05T05:59:09.331Z,962.87
2016-07-05T06:00:09.343Z,962.88
2016-07-05T06:01:09.357Z,962.85
2016-07-05T06:02:09.368Z,962.88
2016-07-05T06:03:09.380Z,962.88
2016-07-05T06:04:09.390Z,962.84
2016-07-05T06:05:09.389Z,962.82
2016-07-05T06:06:09.409Z,962.82
2016-07-05T06:07:09.410Z,962.81
2016-07-05T06:08:09.418Z,962.82
2016-07-05T06:09:09.431Z,962.83
2016-07-05T06:10:09.439Z,962.78
2016-07-05T06:11:09.446Z,962.76
2016-07-05T06:12:09.452Z,962.74
2016-07-05T06:13:09.469Z,962.76
2016-07-05T06:14:09.470Z,962.75
2016-07-05T06:15:09.485Z,962.76
2016-07-05T06:16:09.487Z,962.78
2016-07-05T06:17:09.495Z,962.72
2016-07-05T06:18:09.514Z,962.71
2016-07-05T06:19:09.512Z,962.68
2016-07-05T06:20:09.528Z,962.71
2016-07-05T06:21:09.531Z,962.7
2016-07-05T06:22:09.535Z,962.73
2016-07-05T06:23:09.557Z,962.72
2016-07-05T06:24:09.556Z,962.69
2016-07-05T06:25:09.571Z,962.71
2016-07-05T06:26:09.581Z,962.71
2016-07-05T06:27:09.581Z,962.7
2016-07-05T06:28:09.601Z,962.7
2016-07-05T06:29:09.605Z,962.7
2016-07-05T06:30:09.613Z,962.74
2016-07-05T06:31:09.621Z,962.72
2016-07-05T06:32:09.627Z,962.72
2016-07-05T06:33:09.633Z,962.71
2016-07-05T06:34:09.642Z,962.73
2016-07-05T06:35:09.655Z,962.68
2016-07-05T06:36:09.659Z,962.7
2016-07-05T06:37:09.674Z,962.68
2016-07-05T06:38:09.685Z,962.68
2016-07-05T06:39:09.690Z,962.64
2016-07-05T06:40:09.696Z,962.7
2016-07-05T06:41:09.705Z,962.66
2016-07-05T06:42:09.713Z,962.7
2016-07-05T06:43:09.718Z,962.73
2016-07-05T06:44:09.736Z,962.73
2016-07-05T06:45:09.736Z,962.74
2016-07-05T06:46:09.756Z,962.73
2016-07-05T06:47:09.756Z,962.75
2016-07-05T06:48:09.771Z,962.75
2016-07-05T06:49:09.777Z,962.76
2016-07-05T06:50:09.788Z,962.76
2016-07-05T06:51:09.791Z,962.72
2016-07-05T06:52:09.803Z,962.72
2016-07-05T06:53:09.807Z,962.75
2016-07-05T06:54:09.822Z,962.75
2016-07-05T06:55:09.824Z,962.74
2016-07-05T06:56:09.840Z,962.77
2016-07-05T06:57:09.846Z,962.74
2016-07-05T06:58:09.864Z,962.73
2016-07-05T06:59:09.866Z,962.73
2016-07-05T07:00:09.881Z,962.76
2016-07-05T07:01:09.887Z,962.76
2016-07-05T07:02:09.899Z,962.73
2016-07-05T07:03:09.896Z,962.78
2016-07-05T07:04:09.903Z,962.73
2016-07-05T07:05:09.925Z,962.73
2016-07-05T07:06:09.923Z,962.71
2016-07-05T07:07:09.941Z,962.72
2016-07-05T07:08:09.942Z,962.66
2016-07-05T07:09:09.961Z,962.67
2016-07-05T07:10:09.969Z,962.63
2016-07-05T07:11:09.967Z,962.61
2016-07-05T07:12:09.987Z,962.56
2016-07-05T07:13:09.998Z,962.6
2016-07-05T07:14:09.999Z,962.53
2016-07-05T07:15:10.014Z,962.56
2016-07-05T07:16:10.019Z,962.57
2016-07-05T07:17:10.035Z,962.54
2016-07-05T07:18:10.037Z,962.54
2016-07-05T07:19:10.044Z,962.55
2016-07-05T07:20:10.058Z,962.56
2016-07-05T07:21:10.066Z,962.52
2016-07-05T07:22:10.071Z,962.56
2016-07-05T07:23:10.079Z,962.59
2016-07-05T07:24:10.092Z,962.58
2016-07-05T07:25:10.092Z,962.57
2016-07-05T07:26:10.111Z,962.62
2016-07-05T07:27:10.113Z,962.62
2016-07-05T07:28:10.122Z,962.66
2016-07-05T07:29:10.146Z,962.63
2016-07-05T07:30:10.152Z,962.63
2016-07-05T07:31:10.158Z,962.63
2016-07-05T07:32:10.169Z,962.61
2016-07-05T07:33:10.168Z,962.63
2016-07-05T07:34:10.177Z,962.64
2016-07-05T07:35:10.195Z,962.66
2016-07-05T07:36:10.198Z,962.66
2016-07-05T07:37:10.208Z,962.69
2016-07-05T07:38:10.223Z,962.73
2016-07-05T07:39:10.235Z,962.73
2016-07-05T07:40:10.246Z,962.74
2016-07-05T07:41:10.251Z,962.76
2016-07-05T07:42:10.254Z,962.75
2016-07-05T07:43:10.272Z,962.76
2016-07-05T07:44:10.282Z,962.7
2016-07-05T07:45:10.291Z,962.7
2016-07-05T07:46:10.294Z,962.66
2016-07-05T07:47:10.302Z,962.67
2016-07-05T07:48:10.312Z,962.65
2016-07-05T07:49:10.329Z,962.58
2016-07-05T07:50:10.333Z,962.6
2016-07-05T07:51:10.348Z,962.57
2016-07-05T07:52:10.356Z,962.6
2016-07-05T07:53:10.360Z,962.61
2016-07-05T07:54:10.363Z,962.6
2016-07-05T07:55:10.382Z,962.63
2016-07-05T07:56:10.392Z,962.66
2016-07-05T07:57:10.400Z,962.7
2016-07-05T07:58:10.401Z,962.67
2016-07-05T07:59:10.414Z,962.7
2016-07-05T08:00:10.430Z,962.7
2016-07-05T08:01:10.440Z,962.68
2016-07-05T08:02:10.448Z,962.7
2016-07-05T08:03:10.449Z,962.7
2016-07-05T08:04:10.461Z,962.68
2016-07-05T08:05:10.468Z,962.7
2016-07-05T08:06:10.478Z,962.69
2016-07-05T08:07:10.492Z,962.71
2016-07-05T08:08:10.505Z,962.7
2016-07-05T08:09:10.517Z,962.68
2016-07-05T08:10:10.515Z,962.68
2016-07-05T08:11:10.535Z,962.7
2016-07-05T08:12:10.537Z,962.69
2016-07-05T08:13:10.553Z,962.69
2016-07-05T08:14:10.549Z,962.72
2016-07-05T08:15:10.565Z,962.74
2016-07-05T08:16:10.574Z,962.7
2016-07-05T08:17:10.587Z,962.68
2016-07-05T08:18:10.597Z,962.67
2016-07-05T08:19:10.603Z,962.66
2016-07-05T08:20:10.616Z,962.69
2016-07-05T08:21:10.615Z,962.73
2016-07-05T08:22:10.631Z,962.71
2016-07-05T08:23:10.646Z,962.71
2016-07-05T08:24:10.649Z,962.75
2016-07-05T08:25:10.661Z,962.7
2016-07-05T08:26:10.671Z,962.74
2016-07-05T08:27:10.676Z,962.76
2016-07-05T08:28:10.681Z,962.74
2016-07-05T08:29:10.699Z,962.74
2016-07-05T08:30:10.699Z,962.75
2016-07-05T08:31:10.719Z,962.76
2016-07-05T08:32:10.721Z,962.71
2016-07-05T08:33:10.736Z,962.72
2016-07-05T08:34:10.739Z,962.71
2016-07-05T08:35:10.748Z,962.69
2016-07-05T08:36:10.766Z,962.69
2016-07-05T08:37:10.766Z,962.63
2016-07-05T08:38:10.790Z,962.65
2016-07-05T08:39:10.795Z,962.6
2016-07-05T08:40:10.803Z,962.64
2016-07-05T08:41:10.826Z,962.63
2016-07-05T08:42:10.815Z,962.6
2016-07-05T08:43:10.832Z,962.59
2016-07-05T08:44:10.841Z,962.59
2016-07-05T08:45:10.863Z,962.59
2016-07-05T08:46:10.861Z,962.61
2016-07-05T08:47:10.866Z,962.56
2016-07-05T08:48:10.879Z,962.58
2016-07-05T08:49:10.882Z,962.58
2016-07-05T08:50:10.889Z,962.61
2016-07-05T08:51:10.904Z,962.61
2016-07-05T08:52:10.910Z,962.6
2016-07-05T08:53:10.931Z,962.61
2016-07-05T08:54:10.926Z,962.63
2016-07-05T08:55:10.947Z,962.57
2016-07-05T08:56:10.947Z,962.57
2016-07-05T08:57:10.958Z,962.59
2016-07-05T08:58:10.968Z,962.63
2016-07-05T08:59:10.978Z,962.65
2016-07-05T09:00:10.983Z,962.6
2016-07-05T09:01:10.994Z,962.58
2016-07-05T09:02:11.012Z,962.54
2016-07-05T09:03:11.021Z,962.55
2016-07-05T09:04:11.031Z,962.56
2016-07-05T09:05:11.039Z,962.57
2016-07-05T09:06:11.064Z,962.56
2016-07-05T09:07:11.059Z,962.57
2016-07-05T09:08:11.083Z,962.54
2016-07-05T09:09:11.091Z,962.54
2016-07-05T09:10:11.082Z,962.51
2016-07-05T09:11:11.097Z,962.56
2016-07-05T09:12:11.105Z,962.58
2016-07-05T09:13:11.115Z,962.55
2016-07-05T09:14:11.120Z,962.57
2016-07-05T09:15:11.143Z,962.57
2016-07-05T09:16:11.137Z,962.58
2016-07-05T09:17:11.155Z,962.6
2016-07-05T09:18:11.165Z,962.61
2016-07-05T09:19:11.163Z,962.59
2016-07-05T09:20:11.172Z,962.58
2016-07-05T09:21:11.184Z,962.64
2016-07-05T09:22:11.195Z,962.63
2016-07-05T09:23:11.211Z,962.64
2016-07-05T09:24:11.222Z,962.61
2016-07-05T09:25:11.229Z,962.61
2016-07-05T09:26:11.228Z,962.6
2016-07-05T09:27:11.243Z,962.64
2016-07-05T09:28:11.252Z,962.62
2016-07-05T09:29:11.262Z,962.59
2016-07-05T09:30:11.278Z,962.58
2016-07-05T09:31:11.280Z,962.57
2016-07-05T09:32:11.296Z,962.59
2016-07-05T09:33:11.308Z,962.59
2016-07-05T09:34:11.313Z,962.59
2016-07-05T09:35:11.319Z,962.57
2016-07-05T09:36:11.329Z,962.53
2016-07-05T09:37:11.340Z,962.55
2016-07-05T09:38:11.353Z,962.49
2016-07-05T09:39:11.360Z,962.52
2016-07-05T09:40:11.377Z,962.5
2016-07-05T09:41:11.375Z,962.5
2016-07-05T09:42:11.391Z,962.48
2016-07-05T09:43:11.404Z,962.45
2016-07-05T09:44:11.410Z,962.45
2016-07-05T09:45:11.423Z,962.44
2016-07-05T09:46:11.423Z,962.5
2016-07-05T09:47:11.435Z,962.44
2016-07-05T09:48:11.452Z,962.45
2016-07-05T09:49:11.463Z,962.44
2016-07-05T09:50:11.469Z,962.45
2016-07-05T09:51:11.479Z,962.41
2016-07-05T09:52:11.489Z,962.4
2016-07-05T09:53:11.496Z,962.41
2016-07-05T09:54:11.510Z,962.44
2016-07-05T09:55:11.519Z,962.41
2016-07-05T09:56:11.528Z,962.42
2016-07-05T09:57:11.538Z,962.42
2016-07-05T09:58:11.534Z,962.43
2016-07-05T09:59:11.556Z,962.38
2016-07-05T10:00:11.562Z,962.46
2016-07-05T10:01:11.576Z,962.43
2016-07-05T10:02:11.573Z,962.5
2016-07-05T10:03:11.583Z,962.47
2016-07-05T10:04:11.602Z,962.5
2016-07-05T10:05:11.617Z,962.47
2016-07-05T10:06:11.615Z,962.43
2016-07-05T10:07:11.620Z,962.46
2016-07-05T10:08:11.640Z,962.45
2016-07-05T10:09:11.651Z,962.42
2016-07-05T10:10:11.662Z,962.44
2016-07-05T10:11:11.669Z,962.46
2016-07-05T10:12:11.678Z,962.46
2016-07-05T10:13:11.678Z,962.45
2016-07-05T10:14:11.695Z,962.5
2016-07-05T10:15:11.705Z,962.45
2016-07-05T10:16:11.710Z,962.45
2016-07-05T10:17:11.718Z,962.47
2016-07-05T10:18:11.731Z,962.45
2016-07-05T10:19:11.742Z,962.43
2016-07-05T10:20:11.744Z,962.4
2016-07-05T10:21:11.756Z,962.38
2016-07-05T10:22:11.774Z,962.4
2016-07-05T10:23:11.787Z,962.4
2016-07-05T10:24:11.791Z,962.39
2016-07-05T10:25:11.801Z,962.38
2016-07-05T10:26:11.803Z,962.34
2016-07-05T10:27:11.822Z,962.41
2016-07-05T10:28:11.819Z,962.38
2016-07-05T10:29:11.829Z,962.42
2016-07-05T10:30:11.836Z,962.44
2016-07-05T10:31:11.846Z,962.47
2016-07-05T10:32:11.868Z,962.45
2016-07-05T10:33:11.868Z,962.45
2016-07-05T10:34:11.885Z,962.39
2016-07-05T10:35:11.886Z,962.42
2016-07-05T10:36:11.895Z,962.39
2016-07-05T10:37:11.905Z,962.45
2016-07-05T10:38:11.916Z,962.39
2016-07-05T10:39:11.925Z,962.44
2016-07-05T10:40:11.936Z,962.44
2016-07-05T10:41:11.947Z,962.41
2016-07-05T10:42:11.963Z,962.44
2016-07-05T10:43:11.962Z,962.37
2016-07-05T10:44:11.980Z,962.39
2016-07-05T10:45:11.983Z,962.39
2016-07-05T10:46:12.004Z,962.42
2016-07-05T10:47:12.002Z,962.47
2016-07-05T10:48:12.020Z,962.44
2016-07-05T10:49:12.021Z,962.44
2016-07-05T10:50:12.038Z,962.48
2016-07-05T10:51:12.041Z,962.46
2016-07-05T10:52:12.059Z,962.46
2016-07-05T10:53:12.068Z,962.48
2016-07-05T10:54:12.071Z,962.48
2016-07-05T10:55:12.085Z,962.49
2016-07-05T10:56:12.098Z,962.48
2016-07-05T10:57:12.101Z,962.42
2016-07-05T10:58:12.109Z,962.38
2016-07-05T10:59:12.127Z,962.41
2016-07-05T11:00:12.128Z,962.4
2016-07-05T11:01:12.157Z,962.42
2016-07-05T11:02:12.156Z,962.38
2016-07-05T11:03:12.162Z,962.41
2016-07-05T11:04:12.178Z,962.4
2016-07-05T11:05:12.186Z,962.45
2016-07-05T11:06:12.197Z,962.41
2016-07-05T11:07:12.210Z,962.38
2016-07-05T11:08:12.216Z,962.37
2016-07-05T11:09:12.228Z,962.42
2016-07-05T11:10:12.231Z,962.37
2016-07-05T11:11:12.238Z,962.39
2016-07-05T11:12:12.255Z,962.37
2016-07-05T11:13:12.264Z,962.37
2016-07-05T11:14:12.267Z,962.29
2016-07-05T11:15:12.278Z,962.31
2016-07-05T11:16:12.291Z,962.3
2016-07-05T11:17:12.295Z,962.3
2016-07-05T11:18:12.306Z,962.29
2016-07-05T11:19:12.315Z,962.32
2016-07-05T11:20:12.332Z,962.31
2016-07-05T11:21:12.333Z,962.3
2016-07-05T11:22:12.341Z,962.29
2016-07-05T11:23:12.355Z,962.29
2016-07-05T11:24:12.372Z,962.32
2016-07-05T11:25:12.376Z,962.32
2016-07-05T11:26:12.385Z,962.24
2016-07-05T11:27:12.398Z,962.28
2016-07-05T11:28:12.410Z,962.28
2016-07-05T11:29:12.412Z,962.28
2016-07-05T11:30:12.428Z,962.25
2016-07-05T11:31:12.437Z,962.26
2016-07-05T11:32:12.448Z,962.28
2016-07-05T11:33:12.477Z,962.28
2016-07-05T11:34:12.460Z,962.24
2016-07-05T11:35:12.470Z,962.24
2016-07-05T11:36:12.479Z,962.3
2016-07-05T11:37:12.487Z,962.25
2016-07-05T11:38:12.507Z,962.24
2016-07-05T11:39:12.513Z,962.18
2016-07-05T11:40:12.527Z,962.18
2016-07-05T11:41:12.537Z,962.16
2016-07-05T11:42:12.538Z,962.05
2016-07-05T11:43:12.559Z,962.1
2016-07-05T11:44:12.558Z,962.1
2016-07-05T11:45:12.570Z,962.13
2016-07-05T11:46:12.583Z,962.1
2016-07-05T11:47:12.589Z,962.16
2016-07-05T11:48:12.605Z,962.16
2016-07-05T11:49:12.612Z,962.14
2016-07-05T11:50:12.617Z,962.1
2016-07-05T11:51:12.627Z,962.14
2016-07-05T11:52:12.643Z,962.11
2016-07-05T11:53:12.652Z,962.12
2016-07-05T11:54:12.663Z,962.08
2016-07-05T11:55:12.673Z,962.07
2016-07-05T11:56:12.677Z,962.06
2016-07-05T11:57:12.686Z,962.04
2016-07-05T11:58:12.695Z,962.07
2016-07-05T11:59:12.711Z,962.05
2016-07-05T12:00:12.711Z,962
2016-07-05T12:01:12.722Z,962.01
2016-07-05T12:02:12.735Z,962.01
2016-07-05T12:03:12.750Z,962
2016-07-05T12:04:12.757Z,961.98
2016-07-05T12:05:12.761Z,961.99
2016-07-05T12:06:12.772Z,961.99
2016-07-05T12:07:12.781Z,961.99
2016-07-05T12:08:12.792Z,962
2016-07-05T12:09:12.818Z,962.03
2016-07-05T12:10:12.819Z,961.98
2016-07-05T12:11:12.824Z,961.95
2016-07-05T12:12:12.837Z,961.93
2016-07-05T12:13:12.850Z,961.96
2016-07-05T12:14:12.853Z,961.94
2016-07-05T12:15:12.867Z,961.91
2016-07-05T12:16:12.878Z,961.9
2016-07-05T12:17:12.889Z,961.85
2016-07-05T12:18:12.901Z,961.84
2016-07-05T12:19:12.906Z,961.87
2016-07-05T12:20:12.911Z,961.76
2016-07-05T12:21:12.922Z,961.81
2016-07-05T12:22:12.932Z,961.89
2016-07-05T12:23:12.945Z,961.81
2016-07-05T12:24:12.952Z,961.79
2016-07-05T12:25:12.960Z,961.77
2016-07-05T12:26:12.969Z,961.78
2016-07-05T12:27:12.991Z,961.77
2016-07-05T12:28:12.989Z,961.79
2016-07-05T12:29:12.999Z,961.81
2016-07-05T12:30:13.008Z,961.79
2016-07-05T12:31:13.019Z,961.78